Time;durP1;ratioP1;P1;durP2;ratioP2;P2;SDS_P1;SDS_P2;PMS_P1;PMS_P2;Temp;Humidity;BMP_temperature;BMP_pressure;BME280_temperature;BME280_humidity;BME280_pressure;Samples;Min_cycle;Max_cycle;Signal;HPM_P1;HPM_P2
2022/02/24 00:02:25;;;;;;;14.17;10.20;;;6.60;99.90;;;;;;5012840;23;20491;-92
2022/02/24 00:04:52;;;;;;;14.10;10.03;;;6.60;99.90;;;;;;4983640;28;20440;-93
2022/02/24 00:10:08;;;;;;;14.87;9.70;;;6.60;99.90;;;;;;4992981;28;20407;-92
2022/02/24 00:12:35;;;;;;;15.50;10.10;;;6.70;99.90;;;;;;4969453;28;20457;-92
2022/02/24 00:15:02;;;;;;;14.00;11.00;;;6.70;99.90;;;;;;4962699;29;20449;-92
2022/02/24 00:17:29;;;;;;;13.73;10.23;;;6.70;99.90;;;;;;4964081;29;21029;-93
2022/02/24 00:19:57;;;;;;;11.67;9.87;;;6.70;99.90;;;;;;4964156;29;20571;-92
2022/02/24 00:22:25;;;;;;;15.37;10.20;;;6.70;99.90;;;;;;4961466;28;20474;-92
2022/02/24 00:24:53;;;;;;;14.50;10.27;;;6.70;99.90;;;;;;4954921;28;20526;-92
2022/02/24 00:27:23;;;;;;;15.00;9.73;;;6.70;99.90;;;;;;4950564;29;20540;-93
2022/02/24 00:29:50;;;;;;;13.20;10.30;;;6.80;99.90;;;;;;4947997;29;20529;-93
2022/02/24 00:32:16;;;;;;;14.10;10.00;;;6.90;99.90;;;;;;4956992;28;20477;-93
2022/02/24 00:34:44;;;;;;;11.07;9.07;;;6.90;99.90;;;;;;4944842;29;20464;-93
2022/02/24 00:37:15;;;;;;;14.80;10.27;;;7.00;99.90;;;;;;4949556;29;20449;-93
2022/02/24 00:39:44;;;;;;;12.43;9.17;;;7.00;99.90;;;;;;4963538;29;20479;-93
2022/02/24 00:42:15;;;;;;;12.43;9.07;;;7.00;99.90;;;;;;4963612;28;20472;-93
2022/02/24 00:44:42;;;;;;;16.73;9.63;;;7.00;99.90;;;;;;4953592;28;20456;-93
2022/02/24 00:47:09;;;;;;;15.97;10.03;;;7.00;99.90;;;;;;4963079;28;20446;-92
2022/02/24 00:49:36;;;;;;;11.53;9.20;;;7.00;99.90;;;;;;4953194;28;20888;-92
2022/02/24 00:52:04;;;;;;;10.60;9.17;;;7.00;99.90;;;;;;4945710;29;20642;-93
2022/02/24 00:54:31;;;;;;;11.10;9.50;;;7.00;99.90;;;;;;4948366;29;20572;-92
2022/02/24 00:57:02;;;;;;;13.43;9.50;;;7.00;99.90;;;;;;4946147;29;20461;-92
2022/02/24 00:59:29;;;;;;;11.13;9.93;;;7.00;99.90;;;;;;4962255;28;20469;-93
2022/02/24 01:02:51;;;;;;;8.40;7.60;;;7.00;99.90;;;;;;4974233;28;20479;-93
2022/02/24 01:05:20;;;;;;;9.90;7.73;;;7.00;99.90;;;;;;4980303;28;20476;-92
2022/02/24 01:07:47;;;;;;;9.03;7.90;;;7.00;99.90;;;;;;4969358;29;20453;-93
2022/02/24 01:10:14;;;;;;;10.57;8.23;;;7.10;99.90;;;;;;4976121;28;20524;-92
2022/02/24 01:12:43;;;;;;;8.00;7.20;;;7.10;99.90;;;;;;4981880;28;20485;-92
2022/02/24 01:15:13;;;;;;;13.87;7.60;;;7.10;99.90;;;;;;4981660;28;20449;-94
2022/02/24 01:17:41;;;;;;;11.97;8.80;;;7.10;99.90;;;;;;4981366;28;20460;-93
2022/02/24 01:20:11;;;;;;;9.83;8.20;;;7.20;99.90;;;;;;4980462;28;20477;-93
2022/02/24 01:22:47;;;;;;;13.20;8.40;;;7.20;99.90;;;;;;4974738;28;20543;-93
2022/02/24 01:25:14;;;;;;;13.23;7.20;;;7.20;99.90;;;;;;4965942;29;20437;-93
2022/02/24 01:27:44;;;;;;;12.53;7.50;;;7.30;99.90;;;;;;4966902;29;20920;-93
2022/02/24 01:30:13;;;;;;;8.03;6.57;;;7.30;99.90;;;;;;4968134;29;20944;-93
2022/02/24 01:32:41;;;;;;;7.40;6.60;;;7.40;99.90;;;;;;4969135;28;20504;-93
2022/02/24 01:35:10;;;;;;;10.27;6.90;;;7.40;99.90;;;;;;4975251;29;20502;-93
2022/02/24 01:37:39;;;;;;;10.10;7.50;;;7.40;99.90;;;;;;4969992;28;20456;-91
2022/02/24 01:40:08;;;;;;;11.77;7.53;;;7.50;99.90;;;;;;4969352;28;20953;-93
2022/02/24 01:42:35;;;;;;;6.50;5.60;;;7.40;99.90;;;;;;4948541;29;20470;-93
2022/02/24 01:45:05;;;;;;;7.43;6.20;;;7.40;99.90;;;;;;4958992;29;20453;-94
2022/02/24 01:47:38;;;;;;;8.17;5.87;;;7.40;99.90;;;;;;4964243;29;20429;-93
2022/02/24 01:50:09;;;;;;;9.10;7.43;;;7.40;99.90;;;;;;4975651;28;20465;-94
2022/02/24 01:52:40;;;;;;;7.90;7.10;;;7.30;99.90;;;;;;4980655;28;20497;-94
2022/02/24 01:55:14;;;;;;;11.10;8.00;;;7.30;99.90;;;;;;4968164;28;21244;-93
2022/02/24 01:57:53;;;;;;;11.37;7.10;;;7.30;99.90;;;;;;4973895;28;20460;-93
2022/02/24 02:00:25;;;;;;;7.43;6.73;;;7.20;99.90;;;;;;4970974;28;20473;-93
2022/02/24 02:02:57;;;;;;;8.27;6.60;;;7.10;99.90;;;;;;4961139;28;20461;-92
2022/02/24 02:05:30;;;;;;;13.77;7.33;;;7.00;99.90;;;;;;4960781;28;20516;-93
2022/02/24 02:08:06;;;;;;;8.87;6.37;;;7.00;99.90;;;;;;4953286;29;21039;-93
2022/02/24 02:10:36;;;;;;;9.37;7.10;;;6.90;99.90;;;;;;4949909;28;20505;-93
2022/02/24 02:13:06;;;;;;;10.30;7.10;;;6.90;99.90;;;;;;4956900;28;20449;-93
2022/02/24 02:15:35;;;;;;;8.87;6.80;;;6.80;99.90;;;;;;4948446;28;20965;-93
2022/02/24 02:18:02;;;;;;;9.97;7.30;;;6.80;99.90;;;;;;4943103;29;20525;-93
2022/02/24 02:20:29;;;;;;;13.50;8.03;;;6.70;99.90;;;;;;4953626;28;20473;-93
2022/02/24 02:22:58;;;;;;;12.97;8.53;;;6.80;99.90;;;;;;4974714;28;20472;-93
2022/02/24 02:25:25;;;;;;;10.10;7.50;;;6.80;99.90;;;;;;4950139;29;20501;-94
2022/02/24 02:27:55;;;;;;;16.70;9.20;;;6.80;99.90;;;;;;4944686;29;20478;-93
2022/02/24 02:30:24;;;;;;;17.03;10.33;;;6.80;99.90;;;;;;4956761;28;20521;-93
2022/02/24 02:32:51;;;;;;;10.17;8.33;;;6.80;99.90;;;;;;4959878;28;20492;-93
2022/02/24 02:35:18;;;;;;;15.43;9.43;;;6.70;99.90;;;;;;4944218;29;20478;-92
2022/02/24 02:37:45;;;;;;;14.37;9.23;;;6.70;99.90;;;;;;4943551;29;20476;-93
2022/02/24 02:40:15;;;;;;;12.43;10.03;;;6.80;99.90;;;;;;4941161;29;20482;-93
2022/02/24 02:42:42;;;;;;;14.57;9.20;;;6.70;99.90;;;;;;4956647;28;20468;-93
2022/02/24 02:45:10;;;;;;;15.60;9.00;;;6.80;99.90;;;;;;4940225;29;20464;-93
2022/02/24 02:47:37;;;;;;;15.63;9.47;;;6.80;99.90;;;;;;4948382;29;20457;-92
2022/02/24 02:50:05;;;;;;;11.80;9.47;;;6.80;99.90;;;;;;4959824;29;20559;-93
2022/02/24 02:52:32;;;;;;;18.77;11.60;;;6.80;99.90;;;;;;4959733;28;20538;-93
2022/02/24 02:55:05;;;;;;;14.63;10.60;;;6.70;99.90;;;;;;4941149;29;20453;-93
2022/02/24 02:57:34;;;;;;;14.60;11.13;;;6.80;99.90;;;;;;4948859;29;20444;-93
2022/02/24 03:00:04;;;;;;;24.67;10.20;;;6.70;99.90;;;;;;4960358;29;20464;-93
2022/02/24 03:02:32;;;;;;;12.63;9.63;;;6.70;99.90;;;;;;4961556;28;20496;-93
2022/02/24 03:04:59;;;;;;;13.90;11.00;;;6.70;99.90;;;;;;4956711;29;20587;-93
2022/02/24 03:07:40;;;;;;;14.93;10.20;;;6.60;99.90;;;;;;4959319;29;20453;-93
2022/02/24 03:10:09;;;;;;;11.37;10.00;;;6.50;99.90;;;;;;4960385;29;20428;-93
2022/02/24 03:12:38;;;;;;;17.20;13.50;;;6.60;99.90;;;;;;4959487;28;20460;-93
2022/02/24 03:15:13;;;;;;;12.80;11.43;;;6.60;99.90;;;;;;4960219;29;20970;-93
2022/02/24 03:17:47;;;;;;;15.13;11.83;;;6.60;99.90;;;;;;4954474;29;20445;-93
2022/02/24 03:20:17;;;;;;;13.20;11.30;;;6.60;99.90;;;;;;4952786;29;20559;-94
2022/02/24 03:22:45;;;;;;;16.67;12.07;;;6.60;99.90;;;;;;4968763;28;20457;-94
2022/02/24 03:25:12;;;;;;;18.97;11.83;;;6.70;99.90;;;;;;4962677;28;20449;-93
2022/02/24 03:27:40;;;;;;;24.33;12.60;;;6.70;99.90;;;;;;4970057;29;20437;-93
2022/02/24 03:30:09;;;;;;;16.50;11.80;;;6.70;99.90;;;;;;4959186;28;20446;-93
2022/02/24 03:32:38;;;;;;;15.93;10.13;;;6.60;99.90;;;;;;4943188;29;20481;-93
2022/02/24 03:35:06;;;;;;;15.20;11.60;;;6.60;99.90;;;;;;4954327;28;20485;-92
2022/02/24 03:37:34;;;;;;;20.40;11.43;;;6.60;99.90;;;;;;4959467;28;20445;-92
2022/02/24 03:40:01;;;;;;;14.33;10.70;;;6.70;99.90;;;;;;4959100;28;20470;-93
2022/02/24 03:42:28;;;;;;;15.27;10.30;;;6.60;99.90;;;;;;4964608;28;20499;-93
2022/02/24 03:45:00;;;;;;;12.33;10.30;;;6.60;99.90;;;;;;4976890;28;20459;-93
2022/02/24 03:47:27;;;;;;;14.67;10.37;;;6.70;99.90;;;;;;4977294;28;20441;-94
2022/02/24 03:49:59;;;;;;;12.70;10.97;;;6.70;99.90;;;;;;4951507;28;20913;-93
2022/02/24 03:52:26;;;;;;;16.83;10.80;;;6.80;99.90;;;;;;4949942;29;20469;-93
2022/02/24 03:54:53;;;;;;;17.90;11.30;;;6.70;99.90;;;;;;4946356;29;20450;-93
2022/02/24 03:57:21;;;;;;;12.30;11.07;;;6.80;99.90;;;;;;4960290;29;20532;-92
2022/02/24 03:59:50;;;;;;;15.73;10.73;;;6.70;99.90;;;;;;4967002;29;20511;-93
2022/02/24 04:02:19;;;;;;;13.17;10.00;;;6.70;99.90;;;;;;4965901;28;20474;-91
2022/02/24 04:04:46;;;;;;;13.17;8.53;;;6.70;99.90;;;;;;4958239;28;20465;-93
2022/02/24 04:07:14;;;;;;;14.20;10.33;;;6.60;99.90;;;;;;4954574;28;20437;-93
2022/02/24 04:09:44;;;;;;;11.10;9.90;;;6.60;99.90;;;;;;4970100;28;20452;-93
2022/02/24 04:12:15;;;;;;;12.47;10.27;;;6.50;99.90;;;;;;4976058;28;20469;-93
2022/02/24 04:14:43;;;;;;;15.70;8.73;;;6.50;99.90;;;;;;4962782;28;20472;-93
2022/02/24 04:17:11;;;;;;;10.63;8.63;;;6.50;99.90;;;;;;4979224;28;20448;-95
2022/02/24 04:19:39;;;;;;;9.90;8.50;;;6.50;99.90;;;;;;4975750;28;20459;-93
2022/02/24 04:22:07;;;;;;;13.47;10.13;;;6.50;99.90;;;;;;4959318;28;20489;-93
2022/02/24 04:24:35;;;;;;;9.80;8.37;;;6.40;99.90;;;;;;4954330;28;20454;-93
2022/02/24 04:27:02;;;;;;;12.07;9.30;;;6.40;99.90;;;;;;4945713;29;20613;-93
2022/02/24 04:29:33;;;;;;;13.33;10.17;;;6.40;99.90;;;;;;4944793;29;20458;-93
2022/02/24 04:32:00;;;;;;;15.10;9.70;;;6.40;99.90;;;;;;4943729;29;20533;-92
2022/02/24 04:34:27;;;;;;;12.83;10.53;;;6.30;99.90;;;;;;4955339;28;20438;-92
2022/02/24 04:36:56;;;;;;;8.10;7.27;;;6.30;99.90;;;;;;4959396;28;20453;-91
2022/02/24 04:39:23;;;;;;;9.77;7.00;;;6.30;99.90;;;;;;4946228;29;20457;-92
2022/02/24 04:41:51;;;;;;;8.37;7.57;;;6.20;99.90;;;;;;4950517;29;20476;-92
2022/02/24 04:44:20;;;;;;;6.57;5.50;;;6.20;99.90;;;;;;4980038;28;20433;-92
2022/02/24 04:46:47;;;;;;;8.13;6.77;;;6.20;99.90;;;;;;4966522;29;20448;-93
2022/02/24 04:49:17;;;;;;;12.30;6.03;;;6.30;99.90;;;;;;4965380;29;20464;-92
2022/02/24 04:51:44;;;;;;;7.30;5.80;;;6.30;99.90;;;;;;4949376;29;20469;-94
2022/02/24 04:54:16;;;;;;;7.10;6.40;;;6.30;99.90;;;;;;4959668;29;20445;-94
2022/02/24 04:56:43;;;;;;;8.23;5.60;;;6.40;99.90;;;;;;4958574;29;20529;-93
2022/02/24 04:59:11;;;;;;;8.13;6.43;;;6.50;99.90;;;;;;4956149;29;20456;-93
2022/02/24 05:01:38;;;;;;;10.03;6.23;;;6.50;99.90;;;;;;4949624;29;20485;-93
2022/02/24 05:04:07;;;;;;;6.30;5.10;;;6.50;99.90;;;;;;4951258;29;20591;-93
2022/02/24 05:06:34;;;;;;;6.50;5.63;;;6.60;99.90;;;;;;4966192;28;20436;-92
2022/02/24 05:09:01;;;;;;;6.53;5.60;;;6.50;99.90;;;;;;4955685;28;20454;-92
2022/02/24 05:11:33;;;;;;;7.27;6.23;;;6.50;99.90;;;;;;4950929;29;20466;-93
2022/02/24 05:14:00;;;;;;;6.07;5.50;;;6.50;99.90;;;;;;4952095;29;20891;-93
2022/02/24 05:16:28;;;;;;;6.67;5.80;;;6.50;99.90;;;;;;4956593;29;20477;-92
2022/02/24 05:19:02;;;;;;;6.60;6.00;;;6.40;99.90;;;;;;4952174;29;20448;-93
2022/02/24 05:21:37;;;;;;;7.17;5.80;;;6.40;99.90;;;;;;4966487;28;20485;-93
2022/02/24 05:24:06;;;;;;;6.83;5.93;;;6.40;99.90;;;;;;4975062;28;20499;-92
2022/02/24 05:26:50;;;;;;;7.27;5.90;;;6.30;99.90;;;;;;4973372;28;20467;-90
2022/02/24 05:29:18;;;;;;;7.13;6.10;;;6.20;99.90;;;;;;4966265;28;20478;-93
2022/02/24 05:31:45;;;;;;;8.07;7.00;;;6.20;99.90;;;;;;4959297;28;20526;-92
2022/02/24 05:34:12;;;;;;;11.93;7.73;;;6.20;99.90;;;;;;4968627;28;20517;-93
2022/02/24 05:36:44;;;;;;;10.60;7.50;;;6.10;99.90;;;;;;4971212;28;20469;-92
2022/02/24 05:39:12;;;;;;;14.80;7.97;;;6.00;99.90;;;;;;4957748;28;20469;-93
2022/02/24 05:41:43;;;;;;;10.00;7.80;;;6.00;99.90;;;;;;4962407;28;20478;-91
2022/02/24 05:44:10;;;;;;;10.17;7.93;;;6.00;99.90;;;;;;4980413;28;20460;-93
2022/02/24 05:46:37;;;;;;;9.30;6.67;;;6.00;99.90;;;;;;4964202;28;20480;-94
2022/02/24 05:49:05;;;;;;;10.77;8.07;;;6.00;99.90;;;;;;4952589;29;20971;-93
2022/02/24 05:51:32;;;;;;;9.87;7.60;;;5.90;99.90;;;;;;4965418;28;20461;-93
2022/02/24 05:54:01;;;;;;;13.83;9.10;;;5.90;99.90;;;;;;4957747;29;20461;-93
2022/02/24 05:56:29;;;;;;;12.70;9.60;;;5.90;99.90;;;;;;4954618;29;20434;-94
2022/02/24 05:58:58;;;;;;;10.20;9.00;;;5.80;99.90;;;;;;4960191;28;20461;-91
2022/02/24 06:03:59;;;;;;;12.13;8.90;;;5.70;99.90;;;;;;4982284;28;20511;-89
2022/02/24 06:06:25;;;;;;;10.20;8.27;;;5.70;99.90;;;;;;4985140;28;20439;-90
2022/02/24 06:08:52;;;;;;;11.60;9.03;;;5.70;99.90;;;;;;4994195;28;20458;-89
2022/02/24 06:11:19;;;;;;;13.40;9.43;;;5.60;99.90;;;;;;4999910;28;20455;-91
2022/02/24 06:13:46;;;;;;;12.13;8.97;;;5.70;99.90;;;;;;4953063;28;20497;-89
2022/02/24 06:16:14;;;;;;;9.90;8.40;;;5.60;99.90;;;;;;4942460;29;20458;-89
2022/02/24 06:18:41;;;;;;;12.57;8.40;;;5.60;99.90;;;;;;4955163;28;20476;-90
2022/02/24 06:21:08;;;;;;;10.27;7.73;;;5.60;99.90;;;;;;4963756;28;20473;-89
2022/02/24 06:23:35;;;;;;;11.53;8.60;;;5.60;99.90;;;;;;4953026;29;20619;-89
2022/02/24 06:26:01;;;;;;;18.13;9.50;;;5.60;99.90;;;;;;4953015;29;20446;-87
2022/02/24 06:28:28;;;;;;;11.37;8.33;;;5.50;99.90;;;;;;4955148;29;20442;-88
2022/02/24 06:30:55;;;;;;;13.00;8.87;;;5.50;99.90;;;;;;4942124;29;20455;-89
2022/02/24 06:33:23;;;;;;;10.73;9.30;;;5.50;99.90;;;;;;4955617;29;20476;-89
2022/02/24 06:35:50;;;;;;;11.93;9.40;;;5.50;99.90;;;;;;4941953;29;20826;-88
2022/02/24 06:38:23;;;;;;;13.13;9.30;;;5.50;99.90;;;;;;4952680;29;20446;-88
2022/02/24 06:40:49;;;;;;;15.20;10.03;;;5.50;99.90;;;;;;4951365;29;20434;-89
2022/02/24 06:43:16;;;;;;;12.30;8.90;;;5.50;99.90;;;;;;4963229;28;20485;-89
2022/02/24 06:45:43;;;;;;;9.23;7.63;;;5.50;99.90;;;;;;4965519;29;20500;-89
2022/02/24 06:48:10;;;;;;;9.37;8.40;;;5.50;99.90;;;;;;4977857;28;20496;-89
2022/02/24 06:50:44;;;;;;;12.70;8.37;;;5.50;99.90;;;;;;4962490;28;20434;-90
2022/02/24 06:53:10;;;;;;;10.80;7.63;;;5.50;99.90;;;;;;4945219;29;20558;-89
2022/02/24 06:55:37;;;;;;;11.53;8.97;;;5.60;99.90;;;;;;4943103;29;20466;-90
2022/02/24 06:58:04;;;;;;;14.20;9.10;;;5.60;99.90;;;;;;4971345;29;20425;-90
2022/02/24 07:00:31;;;;;;;21.43;9.80;;;5.60;99.90;;;;;;4969553;29;20446;-89
2022/02/24 07:02:58;;;;;;;12.70;8.50;;;5.70;99.90;;;;;;4960332;28;20500;-90
2022/02/24 07:05:24;;;;;;;15.27;10.57;;;5.60;99.90;;;;;;4945905;28;20834;-90
2022/02/24 07:07:52;;;;;;;11.33;9.80;;;5.70;99.90;;;;;;4947752;29;20458;-90
2022/02/24 07:10:19;;;;;;;12.83;8.20;;;5.70;99.90;;;;;;4957473;29;20445;-91
2022/02/24 07:12:47;;;;;;;14.97;9.67;;;5.80;99.90;;;;;;4942820;29;20484;-90
2022/02/24 07:15:14;;;;;;;14.43;9.23;;;5.80;99.90;;;;;;4956404;28;20451;-90
2022/02/24 07:17:42;;;;;;;9.53;8.10;;;5.90;99.90;;;;;;4961034;28;20454;-90
2022/02/24 07:20:10;;;;;;;13.20;8.80;;;5.90;99.90;;;;;;4957207;29;20465;-89
2022/02/24 07:22:37;;;;;;;12.00;8.43;;;6.00;99.90;;;;;;4956934;28;20987;-88
2022/02/24 07:25:06;;;;;;;12.00;8.83;;;6.00;99.90;;;;;;4948916;29;20452;-88
2022/02/24 07:27:34;;;;;;;11.13;7.97;;;6.10;99.90;;;;;;4939590;29;20456;-89
2022/02/24 07:30:01;;;;;;;11.80;9.23;;;6.20;99.90;;;;;;4954314;28;20497;-89
2022/02/24 07:32:28;;;;;;;14.00;8.67;;;6.20;99.90;;;;;;4951988;28;20481;-89
2022/02/24 07:34:55;;;;;;;11.40;8.83;;;6.30;99.90;;;;;;4938973;29;20457;-89
2022/02/24 07:37:22;;;;;;;11.47;9.00;;;6.30;99.90;;;;;;4960734;29;20456;-89
2022/02/24 07:39:49;;;;;;;10.80;8.27;;;6.50;99.90;;;;;;4959788;29;20504;-90
2022/02/24 07:42:18;;;;;;;13.13;9.43;;;6.50;99.90;;;;;;4953363;28;20492;-89
2022/02/24 07:44:45;;;;;;;12.87;9.43;;;6.60;99.90;;;;;;4939573;29;20438;-89
2022/02/24 07:47:12;;;;;;;14.70;9.43;;;6.70;99.90;;;;;;4945412;29;20512;-88
2022/02/24 07:49:38;;;;;;;14.17;9.73;;;6.70;99.90;;;;;;4959705;29;20456;-91
2022/02/24 07:52:06;;;;;;;12.40;9.30;;;6.80;99.90;;;;;;4965930;28;20465;-89
2022/02/24 07:54:33;;;;;;;15.00;10.93;;;6.90;99.90;;;;;;4970597;29;20460;-90
2022/02/24 07:57:00;;;;;;;11.27;9.73;;;7.00;99.90;;;;;;4953802;29;21039;-89
2022/02/24 07:59:39;;;;;;;12.67;9.40;;;7.00;99.90;;;;;;4952610;29;20456;-89
2022/02/24 08:02:06;;;;;;;10.53;9.03;;;7.00;99.90;;;;;;4964354;28;20486;-90
2022/02/24 08:04:33;;;;;;;11.00;8.90;;;6.90;99.90;;;;;;4952427;29;20448;-88
2022/02/24 08:07:00;;;;;;;12.77;9.90;;;7.00;99.90;;;;;;4966567;28;20601;-89
2022/02/24 08:09:27;;;;;;;16.50;9.13;;;7.10;99.90;;;;;;4966467;29;20445;-89
2022/02/24 08:14:40;;;;;;;11.13;8.40;;;7.20;99.90;;;;;;4947845;29;20493;-89
2022/02/24 08:17:09;;;;;;;12.83;10.07;;;7.20;99.90;;;;;;4950480;29;20560;-89
2022/02/24 08:19:36;;;;;;;12.30;9.63;;;7.10;99.90;;;;;;4955567;29;21031;-88
2022/02/24 08:22:03;;;;;;;17.47;10.07;;;7.10;99.90;;;;;;5079454;23;20564;-89
2022/02/24 08:24:33;;;;;;;17.43;9.57;;;7.20;99.90;;;;;;4992967;28;20443;-89
2022/02/24 08:27:01;;;;;;;13.57;8.63;;;7.30;99.90;;;;;;4973506;28;20423;-89
2022/02/24 08:29:28;;;;;;;16.10;9.40;;;7.50;99.90;;;;;;4982273;28;20463;-90
2022/02/24 08:32:08;;;;;;;14.00;10.23;;;8.20;99.90;;;;;;4974438;28;20476;-90
2022/02/24 08:34:38;;;;;;;11.77;8.60;;;8.70;99.90;;;;;;4973163;29;20967;-88
2022/02/24 08:39:41;;;;;;;7.97;7.17;;;9.70;99.40;;;;;;5115581;23;20528;-89
2022/02/24 08:44:46;;;;;;;8.77;7.07;;;11.20;95.40;;;;;;5597297;23;21590;-89
2022/02/24 08:47:20;;;;;;;12.63;7.57;;;11.60;93.50;;;;;;4981294;28;20477;-88
2022/02/24 08:49:48;;;;;;;12.37;9.40;;;11.30;93.60;;;;;;4974190;28;20451;-88
2022/02/24 08:52:16;;;;;;;19.80;8.87;;;11.00;93.70;;;;;;4975361;28;20445;-89
2022/02/24 08:57:17;;;;;;;12.13;8.90;;;10.60;94.40;;;;;;4977288;28;20465;-89
2022/02/24 08:59:44;;;;;;;11.87;7.47;;;10.50;95.20;;;;;;4964086;29;20452;-89
2022/02/24 09:02:12;;;;;;;8.90;8.00;;;10.80;94.80;;;;;;4961298;28;20493;-90
2022/02/24 09:04:40;;;;;;;9.73;8.50;;;11.10;94.10;;;;;;4931927;29;20419;-87
2022/02/24 09:07:10;;;;;;;10.20;8.00;;;11.20;93.80;;;;;;4957985;29;20425;-89
2022/02/24 09:09:43;;;;;;;15.20;9.13;;;11.40;93.70;;;;;;4945660;29;20816;-89
2022/02/24 09:12:10;;;;;;;12.53;9.47;;;11.30;93.50;;;;;;4944580;29;20462;-90
2022/02/24 09:14:37;;;;;;;11.87;8.20;;;12.00;93.30;;;;;;4943116;29;20483;-89
2022/02/24 09:17:16;;;;;;;8.03;7.23;;;12.20;92.60;;;;;;4941552;29;20782;-89
2022/02/24 09:19:45;;;;;;;11.40;7.70;;;12.30;92.00;;;;;;4942363;29;20837;-90
2022/02/24 09:22:13;;;;;;;11.10;8.07;;;12.20;91.90;;;;;;4949665;29;20495;-89
2022/02/24 09:24:48;;;;;;;11.93;7.77;;;12.10;92.30;;;;;;4944107;29;20454;-89
2022/02/24 09:27:15;;;;;;;14.77;7.90;;;11.90;92.20;;;;;;4942789;29;20456;-90
2022/02/24 09:29:43;;;;;;;11.70;8.10;;;11.70;92.80;;;;;;4942595;29;20460;-89
2022/02/24 09:32:39;;;;;;;18.30;9.33;;;11.50;93.00;;;;;;4926858;29;20476;-89
2022/02/24 09:35:13;;;;;;;8.83;7.70;;;11.30;93.50;;;;;;4941766;29;20975;-89
2022/02/24 09:37:53;;;;;;;18.93;9.40;;;11.30;93.70;;;;;;4948641;29;20977;-90
2022/02/24 09:40:22;;;;;;;22.77;8.30;;;11.40;93.70;;;;;;4948839;29;20857;-89
2022/02/24 09:42:51;;;;;;;11.43;8.30;;;11.50;93.50;;;;;;4952884;29;20505;-90
2022/02/24 09:45:44;;;;;;;12.13;9.47;;;11.50;93.60;;;;;;4949311;29;20469;-90
2022/02/24 09:48:29;;;;;;;11.17;8.63;;;11.60;93.70;;;;;;4949307;29;20534;-90
2022/02/24 09:51:08;;;;;;;12.23;8.30;;;11.80;93.50;;;;;;4944210;29;20487;-89
2022/02/24 09:53:41;;;;;;;16.77;8.70;;;12.20;93.10;;;;;;4961590;28;20465;-89
2022/02/24 10:01:45;;;;;;;14.50;7.00;;;12.90;92.00;;;;;;5130066;23;20493;-89
2022/02/24 10:04:33;;;;;;;10.43;7.60;;;12.90;91.40;;;;;;4948196;23;20447;-87
2022/02/24 10:07:03;;;;;;;7.93;5.70;;;13.10;91.40;;;;;;5078726;23;20475;-88
2022/02/24 10:09:34;;;;;;;5.13;4.63;;;13.80;90.60;;;;;;4961655;28;20467;-89
2022/02/24 10:12:15;;;;;;;6.30;5.10;;;14.90;89.40;;;;;;5157348;23;20530;-88
2022/02/24 10:14:44;;;;;;;6.23;4.00;;;16.10;84.70;;;;;;4979281;28;20472;-88
2022/02/24 10:17:11;;;;;;;6.10;4.37;;;16.50;80.20;;;;;;4975051;28;20480;-88
2022/02/24 10:32:52;;;;;;;6.13;2.77;;;20.70;68.50;;;;;;4134616;23;20504;-90
2022/02/24 10:35:41;;;;;;;;;;;;;;;;;;;;;
2022/02/24 10:38:21;;;;;;;5.17;2.13;;;18.50;64.10;;;;;;4947055;29;20928;-89
2022/02/24 10:40:52;;;;;;;4.77;2.17;;;17.30;65.60;;;;;;4937460;29;20463;-89
2022/02/24 10:43:22;;;;;;;5.67;2.00;;;16.80;67.80;;;;;;4928757;29;20573;-90
2022/02/24 10:46:02;;;;;;;6.40;2.80;;;16.50;69.30;;;;;;4940074;28;20478;-90
2022/02/24 10:48:32;;;;;;;4.67;2.97;;;16.30;69.20;;;;;;4929947;29;20531;-90
2022/02/24 10:51:03;;;;;;;8.20;2.37;;;16.40;70.30;;;;;;4943687;29;20450;-89
2022/02/24 10:53:31;;;;;;;2.47;1.87;;;16.30;69.30;;;;;;4945964;29;20466;-80
2022/02/24 10:56:01;;;;;;;7.27;2.40;;;16.10;69.20;;;;;;4945943;29;20450;-80
2022/02/24 10:58:29;;;;;;;4.40;2.00;;;15.60;70.00;;;;;;4946436;29;20464;-80
2022/02/24 11:01:06;;;;;;;3.63;1.90;;;15.60;70.90;;;;;;4949994;29;20469;-78
2022/02/24 11:03:34;;;;;;;5.50;3.00;;;15.80;70.90;;;;;;4930120;29;20508;-87
2022/02/24 11:06:05;;;;;;;11.17;2.97;;;16.10;72.60;;;;;;4922805;29;20459;-86
2022/02/24 11:08:32;;;;;;;4.50;2.50;;;16.50;70.00;;;;;;4919560;29;20533;-85
2022/02/24 11:11:00;;;;;;;3.10;2.20;;;16.40;68.50;;;;;;4921055;29;20446;-85
2022/02/24 11:13:29;;;;;;;8.17;3.00;;;16.40;69.30;;;;;;4938454;29;20569;-86
2022/02/24 11:15:56;;;;;;;6.53;3.63;;;17.30;69.20;;;;;;4946715;29;20446;-86
2022/02/24 11:18:24;;;;;;;3.63;2.83;;;17.70;65.50;;;;;;4943246;29;20474;-85
2022/02/24 11:20:53;;;;;;;5.67;3.30;;;17.70;63.30;;;;;;4943147;29;20513;-85
2022/02/24 11:23:22;;;;;;;4.27;2.00;;;17.30;64.90;;;;;;4931225;29;20517;-84
2022/02/24 11:25:57;;;;;;;2.97;1.70;;;16.70;65.20;;;;;;4935665;29;20578;-87
2022/02/24 11:28:25;;;;;;;2.77;2.20;;;16.20;66.80;;;;;;4924640;29;20481;-86
2022/02/24 11:30:58;;;;;;;3.17;2.73;;;15.90;67.30;;;;;;4920131;29;20435;-86
2022/02/24 11:33:26;;;;;;;3.67;2.03;;;16.30;68.70;;;;;;4926705;29;20477;-86
2022/02/24 11:36:10;;;;;;;2.83;1.80;;;17.10;67.40;;;;;;4931293;29;20457;-85
2022/02/24 11:38:39;;;;;;;1.80;1.40;;;17.20;64.70;;;;;;4917758;29;20448;-86
2022/02/24 11:41:06;;;;;;;4.10;2.23;;;17.00;64.60;;;;;;4916832;29;20474;-86
2022/02/24 11:43:34;;;;;;;5.83;1.50;;;16.80;64.10;;;;;;4918322;29;20493;-87
2022/02/24 11:46:05;;;;;;;2.90;1.90;;;16.90;63.50;;;;;;4930563;29;20861;-85
2022/02/24 11:48:34;;;;;;;3.83;1.80;;;16.90;62.40;;;;;;4941362;29;20457;-85
2022/02/24 11:51:03;;;;;;;15.50;2.60;;;16.70;63.50;;;;;;4923540;29;20879;-85
2022/02/24 11:53:34;;;;;;;3.43;1.80;;;16.10;63.00;;;;;;4923202;29;20477;-85
2022/02/24 11:56:01;;;;;;;5.17;1.63;;;16.00;64.70;;;;;;4936104;29;20464;-87
2022/02/24 11:58:53;;;;;;;4.30;1.83;;;15.80;64.60;;;;;;4922486;29;20450;-85
2022/02/24 12:01:26;;;;;;;4.60;1.90;;;15.60;63.80;;;;;;4936219;28;20550;-87
2022/02/24 12:03:59;;;;;;;3.50;1.97;;;15.30;63.70;;;;;;4929784;29;20875;-86
2022/02/24 12:06:54;;;;;;;3.37;1.23;;;15.10;64.40;;;;;;4941538;29;20517;-87
2022/02/24 12:09:31;;;;;;;7.30;2.93;;;15.30;64.30;;;;;;4915115;29;20458;-86
2022/02/24 12:12:01;;;;;;;8.10;2.87;;;15.50;64.20;;;;;;4921782;29;20533;-87
2022/02/24 12:14:55;;;;;;;3.10;1.63;;;15.70;63.00;;;;;;4927238;29;20462;-86
2022/02/24 12:17:45;;;;;;;1.90;1.57;;;15.60;61.90;;;;;;4925482;29;20451;-85
2022/02/24 12:20:20;;;;;;;2.70;1.80;;;15.30;62.70;;;;;;4941625;29;20903;-86
2022/02/24 12:22:47;;;;;;;2.00;1.43;;;15.30;62.60;;;;;;4943659;29;20497;-87
2022/02/24 12:25:18;;;;;;;2.70;1.97;;;15.40;62.50;;;;;;4956498;28;20449;-86
2022/02/24 12:27:48;;;;;;;8.53;2.13;;;15.40;63.40;;;;;;4942684;28;20441;-85
2022/02/24 12:30:18;;;;;;;3.80;1.97;;;15.60;62.90;;;;;;4934634;29;20537;-87
2022/02/24 12:32:48;;;;;;;2.10;1.40;;;15.90;62.10;;;;;;4951403;29;20480;-87
2022/02/24 12:35:17;;;;;;;2.63;1.50;;;15.80;61.50;;;;;;4952105;29;20457;-87
2022/02/24 12:37:45;;;;;;;5.10;3.13;;;15.70;61.90;;;;;;4952572;29;20453;-86
2022/02/24 12:40:19;;;;;;;4.87;3.50;;;15.70;62.50;;;;;;4953762;29;20463;-88
2022/02/24 12:42:49;;;;;;;2.80;1.73;;;15.70;62.70;;;;;;5120834;23;20449;-90
2022/02/24 12:45:24;;;;;;;2.50;1.97;;;15.70;62.10;;;;;;4852475;28;2604429;-92
2022/02/24 12:48:05;;;;;;;7.70;2.60;;;15.40;62.50;;;;;;4939652;28;20192;-91
2022/02/24 12:50:42;;;;;;;5.80;2.27;;;15.30;63.00;;;;;;4931706;28;20454;-92
2022/02/24 12:53:15;;;;;;;2.80;1.70;;;15.40;64.30;;;;;;4934910;28;20455;-91
2022/02/24 12:55:45;;;;;;;4.10;1.97;;;15.30;62.80;;;;;;4923343;29;20584;-92
2022/02/24 12:58:14;;;;;;;4.00;2.10;;;15.30;63.40;;;;;;4922475;29;20438;-92
2022/02/24 13:00:46;;;;;;;4.70;2.30;;;15.20;63.60;;;;;;4923307;29;20480;-92
2022/02/24 13:03:15;;;;;;;3.33;1.87;;;15.20;63.60;;;;;;4905284;29;20468;-92
2022/02/24 13:05:51;;;;;;;4.50;1.70;;;15.20;63.40;;;;;;4911964;29;20440;-91
2022/02/24 13:11:10;;;;;;;3.00;1.93;;;15.30;64.50;;;;;;4904978;29;20416;-90
2022/02/24 13:13:45;;;;;;;8.43;2.87;;;15.30;63.20;;;;;;4912425;29;20475;-91
2022/02/24 13:16:16;;;;;;;2.33;1.70;;;15.00;63.50;;;;;;4915764;29;20488;-92
2022/02/24 13:18:46;;;;;;;23.03;2.47;;;15.00;63.60;;;;;;4904725;29;20445;-91
2022/02/24 13:21:23;;;;;;;4.10;2.07;;;14.90;62.90;;;;;;4916365;29;20632;-93
2022/02/24 13:24:02;;;;;;;2.40;1.30;;;14.90;63.30;;;;;;4919608;29;20491;-94
2022/02/24 13:26:43;;;;;;;5.73;1.93;;;14.90;62.90;;;;;;4907272;29;20491;-91
2022/02/24 13:29:14;;;;;;;5.30;1.60;;;14.90;62.80;;;;;;4917439;29;20442;-91
2022/02/24 13:31:45;;;;;;;4.70;2.53;;;14.80;62.90;;;;;;4920652;29;20690;-93
2022/02/24 13:34:13;;;;;;;3.67;1.50;;;14.60;62.70;;;;;;4922415;29;20498;-90
2022/02/24 13:36:40;;;;;;;3.57;1.90;;;14.50;63.50;;;;;;4923534;29;20450;-91
2022/02/24 13:39:07;;;;;;;6.10;1.90;;;14.60;64.10;;;;;;4923152;29;20463;-92
2022/02/24 13:41:36;;;;;;;3.77;1.60;;;14.50;63.30;;;;;;4922466;29;20517;-93